Time;durP1;ratioP1;P1;durP2;ratioP2;P2;SDS_P1;SDS_P2;PMS_P1;PMS_P2;Temp;Humidity;BMP_temperature;BMP_pressure;BME280_temperature;BME280_humidity;BME280_pressure;Samples;Min_cycle;Max_cycle;Signal;HPM_P1;HPM_P2
2022/04/01 00:03:53;;;;;;;16.43;4.30;;;;;;;;;;10455394;28;20081;-71
2022/04/01 00:08:54;;;;;;;18.60;4.93;;;;;;;;;;10472742;28;20089;-71
2022/04/01 00:13:54;;;;;;;12.80;1.23;;;;;;;;;;10488930;28;20660;-71
2022/04/01 00:18:55;;;;;;;5.35;1.23;;;;;;;;;;10471871;28;20410;-71
2022/04/01 00:23:55;;;;;;;3.63;0.80;;;;;;;;;;10471661;28;20539;-75
2022/04/01 00:28:55;;;;;;;6.45;1.48;;;;;;;;;;10471348;28;20090;-74
2022/04/01 00:34:15;;;;;;;8.05;1.13;;;;;;;;;;10489022;28;20504;-72
2022/04/01 00:39:16;;;;;;;8.55;2.25;;;;;;;;;;10489296;28;20032;-74
2022/04/01 00:44:21;;;;;;;12.18;2.50;;;;;;;;;;10471162;28;20032;-73
2022/04/01 00:49:22;;;;;;;18.10;2.78;;;;;;;;;;10470752;28;20493;-74
2022/04/01 00:54:23;;;;;;;13.93;2.00;;;;;;;;;;10489105;28;20035;-75
2022/04/01 00:59:24;;;;;;;15.55;3.67;;;;;;;;;;10469688;28;20052;-71
2022/04/01 01:04:24;;;;;;;20.08;3.08;;;;;;;;;;10470841;28;20028;-75
2022/04/01 01:09:25;;;;;;;12.75;2.72;;;;;;;;;;10470457;28;20440;-75
2022/04/01 01:14:26;;;;;;;13.63;2.72;;;;;;;;;;10470521;28;20097;-74
2022/04/01 01:19:27;;;;;;;12.88;2.05;;;;;;;;;;10470613;28;20024;-69
2022/04/01 01:24:35;;;;;;;12.50;1.80;;;;;;;;;;10470076;28;20035;-74
2022/04/01 01:29:39;;;;;;;11.27;1.83;;;;;;;;;;10470015;28;20444;-74
2022/04/01 01:34:40;;;;;;;36.78;6.53;;;;;;;;;;10470182;28;20032;-74
2022/04/01 01:39:40;;;;;;;40.92;6.82;;;;;;;;;;10470011;28;20534;-73
2022/04/01 01:44:40;;;;;;;45.17;9.83;;;;;;;;;;10469875;28;20032;-72
2022/04/01 01:54:43;;;;;;;56.13;7.18;;;;;;;;;;10469845;28;20028;-74
2022/04/01 01:55:04;;;;;;;53.10;7.78;;;;;;;;;;10487380;28;20045;-73
2022/04/01 02:00:10;;;;;;;52.88;8.80;;;;;;;;;;10469351;28;20016;-74
2022/04/01 02:05:11;;;;;;;62.70;7.75;;;;;;;;;;10469217;28;20029;-70
2022/04/01 02:10:11;;;;;;;56.57;10.10;;;;;;;;;;10480949;28;20028;-70
2022/04/01 02:15:11;;;;;;;60.03;11.05;;;;;;;;;;10515480;28;20274;-71
2022/04/01 02:20:12;;;;;;;51.15;8.00;;;;;;;;;;10535424;28;20046;-71
2022/04/01 02:25:12;;;;;;;56.13;9.63;;;;;;;;;;10517246;28;20070;-71
2022/04/01 02:30:12;;;;;;;56.13;8.53;;;;;;;;;;10517239;28;20405;-71
2022/04/01 02:35:13;;;;;;;51.33;6.63;;;;;;;;;;10517682;28;20534;-72
2022/04/01 02:40:13;;;;;;;58.85;8.40;;;;;;;;;;10517555;28;20423;-73
2022/04/01 02:45:14;;;;;;;59.45;8.80;;;;;;;;;;10516974;28;20028;-75
2022/04/01 02:50:14;;;;;;;51.00;9.67;;;;;;;;;;10517608;28;20398;-74
2022/04/01 02:55:14;;;;;;;57.90;12.98;;;;;;;;;;10534758;28;20044;-71
2022/04/01 03:00:21;;;;;;;59.87;8.30;;;;;;;;;;10516648;28;20020;-69
2022/04/01 03:05:21;;;;;;;56.75;10.23;;;;;;;;;;10491662;28;20027;-71
2022/04/01 03:10:23;;;;;;;63.03;12.40;;;;;;;;;;10492479;28;20410;-77
2022/04/01 03:15:24;;;;;;;57.53;11.38;;;;;;;;;;10474610;28;20021;-73
2022/04/01 03:20:25;;;;;;;55.05;8.98;;;;;;;;;;10474046;28;20032;-78
2022/04/01 03:25:26;;;;;;;51.75;11.35;;;;;;;;;;10474611;28;20384;-69
2022/04/01 03:30:27;;;;;;;51.13;13.20;;;;;;;;;;10474022;28;20032;-71
2022/04/01 03:35:28;;;;;;;70.55;11.93;;;;;;;;;;10474133;28;20012;-76
2022/04/01 03:40:29;;;;;;;66.75;11.90;;;;;;;;;;10473023;28;20017;-72
2022/04/01 03:45:29;;;;;;;71.65;9.35;;;;;;;;;;10473579;28;20025;-75
2022/04/01 03:50:31;;;;;;;61.22;10.15;;;;;;;;;;10473412;28;20024;-73
2022/04/01 03:55:33;;;;;;;67.88;10.30;;;;;;;;;;10472350;28;20053;-72
2022/04/01 04:00:34;;;;;;;41.72;6.95;;;;;;;;;;10472852;28;20024;-72
2022/04/01 04:05:36;;;;;;;35.08;7.85;;;;;;;;;;10472331;28;20437;-71
2022/04/01 04:10:37;;;;;;;46.40;7.68;;;;;;;;;;10489869;28;20033;-71
2022/04/01 04:15:41;;;;;;;45.78;7.50;;;;;;;;;;10471979;28;20086;-71
2022/04/01 04:20:57;;;;;;;53.72;7.97;;;;;;;;;;10472049;28;20422;-71
2022/04/01 04:26:11;;;;;;;63.70;9.65;;;;;;;;;;10483997;28;20027;-73
2022/04/01 04:31:12;;;;;;;53.17;8.95;;;;;;;;;;10508085;28;20759;-72
2022/04/01 04:36:15;;;;;;;48.35;8.52;;;;;;;;;;10508152;28;20033;-72
2022/04/01 04:41:18;;;;;;;46.13;8.60;;;;;;;;;;10512087;28;20012;-77
2022/04/01 04:46:18;;;;;;;52.90;10.77;;;;;;;;;;10511921;28;20440;-75
2022/04/01 04:51:21;;;;;;;62.90;9.32;;;;;;;;;;10505273;28;20028;-72
2022/04/01 04:56:24;;;;;;;35.63;8.52;;;;;;;;;;10473775;28;20044;-70
2022/04/01 05:01:48;;;;;;;47.45;8.02;;;;;;;;;;10489071;28;20077;-72
2022/04/01 05:06:51;;;;;;;38.38;6.38;;;;;;;;;;10511926;28;20504;-72
2022/04/01 05:12:10;;;;;;;64.15;10.95;;;;;;;;;;10529352;28;20563;-71
2022/04/01 05:17:15;;;;;;;65.72;8.32;;;;;;;;;;10491940;28;20028;-75
2022/04/01 05:22:17;;;;;;;55.72;8.38;;;;;;;;;;10452941;28;20028;-75
2022/04/01 05:27:25;;;;;;;53.58;7.53;;;;;;;;;;10468822;28;20042;-71
2022/04/01 05:32:28;;;;;;;42.38;9.30;;;;;;;;;;10452444;28;20024;-77
2022/04/01 05:37:29;;;;;;;55.70;7.75;;;;;;;;;;10452500;28;20020;-70
2022/04/01 05:42:29;;;;;;;52.58;8.60;;;;;;;;;;10498670;28;20055;-72
2022/04/01 05:47:33;;;;;;;50.33;10.00;;;;;;;;;;10475802;28;20107;-72
2022/04/01 05:52:34;;;;;;;44.67;8.60;;;;;;;;;;10477099;28;20112;-74
2022/04/01 05:57:34;;;;;;;47.10;7.20;;;;;;;;;;10476323;28;20136;-72
2022/04/01 06:02:53;;;;;;;55.33;9.13;;;;;;;;;;10476185;28;20021;-75
2022/04/01 06:07:59;;;;;;;49.60;7.25;;;;;;;;;;10476591;28;20404;-70
2022/04/01 06:13:06;;;;;;;43.72;8.07;;;;;;;;;;10476553;28;20028;-74
2022/04/01 06:18:06;;;;;;;57.90;9.00;;;;;;;;;;10476292;28;20059;-70
2022/04/01 06:23:12;;;;;;;48.30;11.10;;;;;;;;;;10493886;28;20704;-72
2022/04/01 06:28:24;;;;;;;36.13;8.18;;;;;;;;;;10478294;28;20100;-75
2022/04/01 06:33:24;;;;;;;59.53;10.57;;;;;;;;;;10479149;28;20021;-76
2022/04/01 06:38:38;;;;;;;62.63;7.43;;;;;;;;;;10476637;28;20016;-73
2022/04/01 06:43:38;;;;;;;58.53;8.48;;;;;;;;;;10476899;28;20073;-79
2022/04/01 06:48:40;;;;;;;54.83;9.25;;;;;;;;;;10475412;28;20383;-76
2022/04/01 06:53:41;;;;;;;47.40;8.85;;;;;;;;;;10491259;28;20020;-72
2022/04/01 06:58:42;;;;;;;45.75;7.50;;;;;;;;;;10473558;28;20048;-73
2022/04/01 07:03:42;;;;;;;62.87;9.87;;;;;;;;;;10475424;28;20041;-71
2022/04/01 07:08:43;;;;;;;57.75;8.43;;;;;;;;;;10476292;28;20020;-72
2022/04/01 07:13:44;;;;;;;64.22;9.48;;;;;;;;;;10476294;28;20021;-72
2022/04/01 07:18:44;;;;;;;56.63;8.20;;;;;;;;;;10475093;28;20017;-72
2022/04/01 07:23:45;;;;;;;65.35;10.82;;;;;;;;;;10473955;28;20444;-72
2022/04/01 07:28:46;;;;;;;45.80;7.60;;;;;;;;;;10473083;28;20422;-72
2022/04/01 07:33:46;;;;;;;62.30;9.18;;;;;;;;;;10473393;28;20115;-74
2022/04/01 07:38:47;;;;;;;57.40;9.40;;;;;;;;;;10473397;28;20021;-77
2022/04/01 07:43:47;;;;;;;55.55;7.90;;;;;;;;;;10473052;28;20024;-76
2022/04/01 07:48:47;;;;;;;36.95;6.88;;;;;;;;;;10491242;28;20035;-71
2022/04/01 07:53:48;;;;;;;61.60;9.50;;;;;;;;;;10456268;28;20024;-76
2022/04/01 07:58:48;;;;;;;55.33;8.87;;;;;;;;;;10472224;28;20461;-74
2022/04/01 08:03:48;;;;;;;55.95;9.00;;;;;;;;;;10456250;28;20271;-73
2022/04/01 08:08:48;;;;;;;46.47;7.55;;;;;;;;;;10471457;28;20024;-73
2022/04/01 08:13:49;;;;;;;48.85;7.10;;;;;;;;;;10471414;28;20043;-71
2022/04/01 08:18:49;;;;;;;41.97;6.70;;;;;;;;;;10471512;28;20066;-72
2022/04/01 08:23:50;;;;;;;51.03;7.77;;;;;;;;;;10471328;28;20055;-71
2022/04/01 08:28:50;;;;;;;52.72;5.88;;;;;;;;;;10470799;28;20266;-74
2022/04/01 08:33:50;;;;;;;59.38;7.53;;;;;;;;;;10470650;28;20020;-71
2022/04/01 08:38:51;;;;;;;53.70;8.32;;;;;;;;;;10471992;28;20025;-72
2022/04/01 08:43:52;;;;;;;44.25;5.60;;;;;;;;;;10489067;28;20048;-72
2022/04/01 08:48:52;;;;;;;41.80;5.32;;;;;;;;;;10470120;28;20028;-71
2022/04/01 08:53:52;;;;;;;39.03;8.87;;;;;;;;;;10488273;28;20025;-73
2022/04/01 08:58:53;;;;;;;47.47;6.72;;;;;;;;;;10487923;28;20052;-70
2022/04/01 09:03:55;;;;;;;45.33;10.27;;;;;;;;;;10469867;28;20086;-73
2022/04/01 09:08:57;;;;;;;54.08;6.00;;;;;;;;;;10470422;28;20552;-74
2022/04/01 09:13:58;;;;;;;47.15;8.55;;;;;;;;;;10487091;28;20033;-69
2022/04/01 09:19:02;;;;;;;57.08;10.80;;;;;;;;;;10468693;28;20028;-76
2022/04/01 09:24:03;;;;;;;44.17;7.28;;;;;;;;;;10497033;28;20024;-71
2022/04/01 09:29:04;;;;;;;71.80;8.32;;;;;;;;;;10487366;28;20483;-73
2022/04/01 09:34:10;;;;;;;67.35;9.88;;;;;;;;;;10486201;28;20021;-72
2022/04/01 09:39:17;;;;;;;47.80;7.78;;;;;;;;;;10453707;28;20426;-81
2022/04/01 09:44:20;;;;;;;62.67;8.48;;;;;;;;;;10470458;28;20016;-78
2022/04/01 09:49:36;;;;;;;46.50;7.20;;;;;;;;;;10469003;28;20330;-78
2022/04/01 09:54:43;;;;;;;47.13;7.22;;;;;;;;;;10513683;28;20024;-71
2022/04/01 09:59:44;;;;;;;58.40;7.73;;;;;;;;;;10507613;28;20193;-71
2022/04/01 10:04:45;;;;;;;30.95;6.00;;;;;;;;;;10508039;28;20058;-73
2022/04/01 10:09:45;;;;;;;45.45;7.53;;;;;;;;;;10507996;28;20026;-74
2022/04/01 10:14:46;;;;;;;43.60;6.23;;;;;;;;;;10507003;28;20522;-70
2022/04/01 10:19:47;;;;;;;52.05;6.35;;;;;;;;;;10507102;28;20031;-71
2022/04/01 10:24:52;;;;;;;32.83;4.88;;;;;;;;;;10507221;28;20044;-75
2022/04/01 10:29:55;;;;;;;39.58;6.45;;;;;;;;;;10524809;28;20024;-75
2022/04/01 10:34:57;;;;;;;45.88;6.32;;;;;;;;;;10522409;28;20521;-73
2022/04/01 10:40:20;;;;;;;35.42;5.85;;;;;;;;;;10459186;28;20120;-74
2022/04/01 10:45:22;;;;;;;40.35;6.28;;;;;;;;;;10459417;28;20151;-78
2022/04/01 10:55:41;;;;;;;26.55;4.72;;;;;;;;;;10493432;28;20049;-72
2022/04/01 11:00:51;;;;;;;39.35;6.90;;;;;;;;;;10492346;28;20024;-73
2022/04/01 11:06:11;;;;;;;35.83;6.80;;;;;;;;;;10474740;28;20060;-72
2022/04/01 11:11:12;;;;;;;29.08;3.65;;;;;;;;;;10473885;28;20032;-73
2022/04/01 11:16:13;;;;;;;43.67;4.82;;;;;;;;;;10473847;28;20426;-72
2022/04/01 11:21:27;;;;;;;37.27;5.30;;;;;;;;;;10473928;28;20020;-72
2022/04/01 11:26:41;;;;;;;41.33;4.93;;;;;;;;;;10473937;28;20020;-71
2022/04/01 11:31:42;;;;;;;34.13;6.10;;;;;;;;;;10473237;28;20039;-71
2022/04/01 11:36:42;;;;;;;44.75;5.07;;;;;;;;;;10491152;28;20024;-71
2022/04/01 11:41:44;;;;;;;23.40;3.75;;;;;;;;;;10472194;28;20035;-72
2022/04/01 11:46:51;;;;;;;48.50;6.75;;;;;;;;;;10490874;28;20033;-72
2022/04/01 11:51:52;;;;;;;27.33;5.35;;;;;;;;;;10472134;28;20028;-70
2022/04/01 11:56:53;;;;;;;31.85;4.63;;;;;;;;;;10471974;28;20057;-71
2022/04/01 12:01:58;;;;;;;35.65;5.07;;;;;;;;;;10512291;28;20418;-74
2022/04/01 12:12:22;;;;;;;32.30;5.28;;;;;;;;;;10531584;28;20547;-72
2022/04/01 12:17:23;;;;;;;42.15;7.18;;;;;;;;;;10505598;28;20027;-70
2022/04/01 12:22:23;;;;;;;33.70;6.03;;;;;;;;;;10530401;28;20043;-71
2022/04/01 12:27:23;;;;;;;41.50;6.27;;;;;;;;;;10471696;28;20482;-72
2022/04/01 12:32:24;;;;;;;37.38;6.78;;;;;;;;;;10487526;28;20021;-74
2022/04/01 12:37:25;;;;;;;45.92;6.32;;;;;;;;;;10504352;28;20021;-71
2022/04/01 12:42:25;;;;;;;29.33;6.00;;;;;;;;;;10507894;28;20020;-71
2022/04/01 12:47:27;;;;;;;41.72;11.27;;;;;;;;;;10525660;23;20040;-71
2022/04/01 12:52:27;;;;;;;33.65;5.70;;;;;;;;;;10410005;28;20060;-71
2022/04/01 12:57:28;;;;;;;45.78;8.55;;;;;;;;;;10421919;28;20459;-71
2022/04/01 13:02:30;;;;;;;42.10;7.43;;;;;;;;;;10445953;28;20020;-70
2022/04/01 13:07:32;;;;;;;40.60;6.80;;;;;;;;;;10452742;28;20429;-73
2022/04/01 13:12:32;;;;;;;48.17;5.63;;;;;;;;;;10437153;28;20406;-71
2022/04/01 13:18:00;;;;;;;43.60;8.30;;;;;;;;;;10479011;28;20017;-72
2022/04/01 13:23:03;;;;;;;33.42;7.05;;;;;;;;;;10484620;28;20110;-75
2022/04/01 13:28:04;;;;;;;37.20;6.53;;;;;;;;;;10457198;28;20525;-74
2022/04/01 13:33:04;;;;;;;25.65;5.63;;;;;;;;;;10493395;28;20029;-71
2022/04/01 13:38:04;;;;;;;38.50;5.73;;;;;;;;;;10504810;28;20031;-73
2022/04/01 13:43:05;;;;;;;32.95;7.22;;;;;;;;;;10528194;28;20288;-72
2022/04/01 13:48:06;;;;;;;27.27;5.00;;;;;;;;;;10483772;28;20085;-72
2022/04/01 13:53:08;;;;;;;29.90;7.03;;;;;;;;;;10482009;28;20039;-73
2022/04/01 13:58:08;;;;;;;35.88;5.60;;;;;;;;;;10505311;28;20021;-71
2022/04/01 14:03:09;;;;;;;44.42;5.65;;;;;;;;;;10487684;28;20024;-71
2022/04/01 14:08:09;;;;;;;31.15;4.85;;;;;;;;;;10487200;28;20031;-74
2022/04/01 14:13:10;;;;;;;29.70;5.57;;;;;;;;;;10487097;28;20020;-71
2022/04/01 14:18:11;;;;;;;26.17;4.55;;;;;;;;;;10494351;28;20051;-73
2022/04/01 14:23:11;;;;;;;29.90;5.35;;;;;;;;;;10501466;28;20084;-69
2022/04/01 14:28:12;;;;;;;28.25;5.35;;;;;;;;;;10512210;28;20109;-78
2022/04/01 14:33:12;;;;;;;16.48;3.33;;;;;;;;;;10492340;28;20026;-71
2022/04/01 14:38:13;;;;;;;13.75;2.53;;;;;;;;;;10477597;28;20413;-76
2022/04/01 14:43:13;;;;;;;8.63;2.35;;;;;;;;;;10482179;28;20454;-71
2022/04/01 14:48:13;;;;;;;8.73;2.80;;;;;;;;;;10516759;28;20020;-71
2022/04/01 14:53:14;;;;;;;9.20;3.13;;;;;;;;;;10516000;28;20020;-72
2022/04/01 14:58:15;;;;;;;7.00;2.45;;;;;;;;;;10511986;28;20151;-72
2022/04/01 15:03:15;;;;;;;3.83;2.00;;;;;;;;;;10498004;28;20028;-71
2022/04/01 15:08:16;;;;;;;9.53;2.40;;;;;;;;;;10496348;28;20016;-70
2022/04/01 15:13:16;;;;;;;6.05;2.03;;;;;;;;;;10491800;28;20032;-69
2022/04/01 15:18:17;;;;;;;8.68;2.38;;;;;;;;;;10529009;28;20036;-71
2022/04/01 15:23:17;;;;;;;5.78;2.17;;;;;;;;;;10513767;28;20020;-70
2022/04/01 15:28:17;;;;;;;8.20;1.92;;;;;;;;;;10514869;28;20125;-70
2022/04/01 15:33:18;;;;;;;3.67;1.97;;;;;;;;;;10489611;28;20469;-71
2022/04/01 15:38:22;;;;;;;4.45;1.95;;;;;;;;;;10489203;28;20017;-72
2022/04/01 15:43:24;;;;;;;7.00;2.30;;;;;;;;;;10469266;28;20602;-71
2022/04/01 15:48:24;;;;;;;5.43;1.98;;;;;;;;;;10485196;28;20108;-71
2022/04/01 15:53:25;;;;;;;8.40;3.88;;;;;;;;;;10470034;28;20016;-71
2022/04/01 15:58:25;;;;;;;8.47;3.87;;;;;;;;;;10472670;28;20017;-74
2022/04/01 16:03:32;;;;;;;10.40;3.10;;;;;;;;;;10471948;28;20020;-74
2022/04/01 16:08:33;;;;;;;5.65;3.75;;;;;;;;;;10493017;28;20024;-72
2022/04/01 16:13:35;;;;;;;11.85;5.88;;;;;;;;;;10471944;28;20507;-73
2022/04/01 16:18:36;;;;;;;10.60;5.00;;;;;;;;;;10471795;28;20024;-71
2022/04/01 16:23:38;;;;;;;8.43;3.38;;;;;;;;;;10471395;28;20122;-71
2022/04/01 16:28:38;;;;;;;9.25;3.90;;;;;;;;;;10471821;28;20025;-74
2022/04/01 16:33:40;;;;;;;7.40;3.83;;;;;;;;;;10473529;28;20024;-71
2022/04/01 16:38:43;;;;;;;10.70;3.45;;;;;;;;;;10486164;28;20477;-73
2022/04/01 16:43:44;;;;;;;12.10;4.88;;;;;;;;;;10454905;28;20139;-72
2022/04/01 16:48:44;;;;;;;11.48;3.63;;;;;;;;;;10488282;28;20077;-71
2022/04/01 16:53:44;;;;;;;10.05;3.50;;;;;;;;;;10495075;28;20020;-72
2022/04/01 16:58:45;;;;;;;15.25;3.38;;;;;;;;;;10466885;28;20399;-70
2022/04/01 17:03:45;;;;;;;11.60;3.60;;;;;;;;;;10485688;28;20422;-69
2022/04/01 17:14:04;;;;;;;10.02;3.65;;;;;;;;;;10489483;28;20453;-74
2022/04/01 17:19:06;;;;;;;11.43;4.67;;;;;;;;;;10513257;28;20028;-74
2022/04/01 17:24:08;;;;;;;10.68;4.55;;;;;;;;;;10509496;28;20028;-71
2022/04/01 17:29:08;;;;;;;10.20;5.25;;;;;;;;;;10473309;28;20016;-71
2022/04/01 17:34:13;;;;;;;14.02;4.75;;;;;;;;;;10467822;28;20533;-75
2022/04/01 17:39:15;;;;;;;13.73;5.10;;;;;;;;;;10468766;28;20024;-71
2022/04/01 17:44:16;;;;;;;14.82;5.35;;;;;;;;;;10475795;28;20056;-72
2022/04/01 17:49:16;;;;;;;11.90;5.07;;;;;;;;;;10475884;28;20021;-75
2022/04/01 17:54:16;;;;;;;15.43;6.43;;;;;;;;;;10476678;28;20530;-73
2022/04/01 17:59:17;;;;;;;14.60;5.78;;;;;;;;;;10477306;28;20052;-71
2022/04/01 18:04:18;;;;;;;12.48;5.20;;;;;;;;;;10493530;28;20337;-69
2022/04/01 18:09:26;;;;;;;16.83;5.50;;;;;;;;;;10495661;28;20031;-77
2022/04/01 18:14:27;;;;;;;15.93;5.32;;;;;;;;;;10511320;28;20020;-71
2022/04/01 18:19:28;;;;;;;14.52;4.40;;;;;;;;;;10514396;28;20012;-70
2022/04/01 18:25:10;;;;;;;13.77;5.65;;;;;;;;;;10513768;28;20035;-74
2022/04/01 18:29:50;;;;;;;10.95;4.10;;;;;;;;;;10526469;28;20103;-70
2022/04/01 18:34:52;;;;;;;7.40;2.70;;;;;;;;;;10510058;28;20544;-71
2022/04/01 18:39:53;;;;;;;9.52;4.03;;;;;;;;;;10508299;28;20036;-72
2022/04/01 18:44:54;;;;;;;11.77;3.35;;;;;;;;;;10513140;28;20541;-74
2022/04/01 18:49:55;;;;;;;8.93;3.83;;;;;;;;;;10513257;28;20039;-74
2022/04/01 18:54:56;;;;;;;7.75;2.95;;;;;;;;;;10512596;28;20559;-70
2022/04/01 18:59:56;;;;;;;8.53;2.77;;;;;;;;;;10514272;28;20465;-71
2022/04/01 19:05:03;;;;;;;4.27;1.47;;;;;;;;;;10512941;28;20114;-71
2022/04/01 19:10:03;;;;;;;3.95;1.00;;;;;;;;;;10471835;28;20043;-74
2022/04/01 19:15:05;;;;;;;1.35;0.98;;;;;;;;;;10471723;28;20032;-72
2022/04/01 19:20:07;;;;;;;1.35;0.70;;;;;;;;;;10483935;28;20066;-73
2022/04/01 19:25:11;;;;;;;3.40;0.60;;;;;;;;;;10478041;28;20016;-71
2022/04/01 19:30:13;;;;;;;3.72;0.90;;;;;;;;;;10484953;28;20028;-72
2022/04/01 19:35:17;;;;;;;4.03;1.20;;;;;;;;;;10471311;28;20619;-70
2022/04/01 19:40:17;;;;;;;3.55;0.73;;;;;;;;;;10471970;28;20021;-72
2022/04/01 19:45:20;;;;;;;7.93;1.15;;;;;;;;;;10471563;28;20518;-71
2022/04/01 19:50:21;;;;;;;4.28;1.25;;;;;;;;;;10471618;28;20024;-71
2022/04/01 19:55:23;;;;;;;2.10;0.90;;;;;;;;;;10490607;28;20033;-72
2022/04/01 20:00:23;;;;;;;1.20;0.68;;;;;;;;;;10473122;28;20090;-73
2022/04/01 20:05:23;;;;;;;0.87;0.67;;;;;;;;;;10490627;28;20094;-71
2022/04/01 20:10:24;;;;;;;4.75;1.02;;;;;;;;;;10471470;28;20053;-71
2022/04/01 20:15:25;;;;;;;3.70;1.33;;;;;;;;;;10455042;28;20028;-71
2022/04/01 20:20:26;;;;;;;5.40;1.65;;;;;;;;;;10470870;28;20475;-72
2022/04/01 20:25:27;;;;;;;5.57;1.75;;;;;;;;;;10476689;28;20062;-74
2022/04/01 20:30:27;;;;;;;4.90;1.90;;;;;;;;;;10526511;28;20528;-72
2022/04/01 20:35:29;;;;;;;3.22;1.35;;;;;;;;;;10469832;28;20686;-71
2022/04/01 20:40:29;;;;;;;12.02;1.77;;;;;;;;;;10470789;28;20016;-72
2022/04/01 20:45:29;;;;;;;3.60;1.70;;;;;;;;;;10469576;28;20052;-72
2022/04/01 20:50:30;;;;;;;6.15;2.00;;;;;;;;;;10495805;28;20108;-71
2022/04/01 20:55:30;;;;;;;5.70;1.80;;;;;;;;;;10506268;28;20028;-74
2022/04/01 21:00:30;;;;;;;5.07;1.83;;;;;;;;;;10469794;28;20541;-76
2022/04/01 21:05:30;;;;;;;5.07;1.77;;;;;;;;;;10488020;28;20025;-76
2022/04/01 21:10:31;;;;;;;3.20;1.50;;;;;;;;;;10469064;28;20028;-76
2022/04/01 21:15:32;;;;;;;5.43;1.25;;;;;;;;;;10468070;28;20040;-70
2022/04/01 21:20:32;;;;;;;2.80;1.43;;;;;;;;;;10487643;28;20496;-73
2022/04/01 21:30:52;;;;;;;2.78;1.02;;;;;;;;;;10520993;28;20029;-75
2022/04/01 21:35:53;;;;;;;4.75;1.30;;;;;;;;;;10485043;28;20028;-73
2022/04/01 21:40:53;;;;;;;5.82;1.33;;;;;;;;;;10487270;28;20526;-71
2022/04/01 21:45:53;;;;;;;3.90;1.83;;;;;;;;;;10485317;28;20053;-74
2022/04/01 21:50:54;;;;;;;7.70;2.45;;;;;;;;;;10469934;28;20074;-72
2022/04/01 21:55:54;;;;;;;6.77;3.33;;;;;;;;;;10486197;28;20115;-72
2022/04/01 22:00:54;;;;;;;6.72;3.28;;;;;;;;;;10452733;28;20099;-76
2022/04/01 22:05:59;;;;;;;9.53;3.33;;;;;;;;;;10486452;28;20074;-74
2022/04/01 22:10:59;;;;;;;5.78;2.70;;;;;;;;;;10486190;28;20032;-73
2022/04/01 22:16:00;;;;;;;4.30;2.97;;;;;;;;;;10468948;28;20402;-73
2022/04/01 22:21:00;;;;;;;6.88;3.20;;;;;;;;;;10469214;28;20074;-74
2022/04/01 22:26:00;;;;;;;5.67;3.53;;;;;;;;;;10470158;28;20032;-75
2022/04/01 22:31:01;;;;;;;6.13;2.30;;;;;;;;;;10476176;28;20278;-74
2022/04/01 22:36:02;;;;;;;5.00;2.80;;;;;;;;;;10477065;28;20521;-75
2022/04/01 22:41:04;;;;;;;10.50;2.60;;;;;;;;;;10494102;28;20020;-72
2022/04/01 22:46:05;;;;;;;6.13;2.80;;;;;;;;;;10475822;28;20048;-71
2022/04/01 22:51:06;;;;;;;13.63;2.92;;;;;;;;;;10476317;28;20055;-74
2022/04/01 22:56:07;;;;;;;7.18;3.85;;;;;;;;;;10475859;28;20120;-72
2022/04/01 23:01:07;;;;;;;9.70;3.80;;;;;;;;;;10475355;28;20016;-71
2022/04/01 23:06:07;;;;;;;7.72;3.65;;;;;;;;;;10475898;28;20013;-74
2022/04/01 23:11:08;;;;;;;10.30;3.35;;;;;;;;;;10474910;28;20020;-73
2022/04/01 23:16:08;;;;;;;7.65;3.42;;;;;;;;;;10474640;28;20028;-73
2022/04/01 23:21:08;;;;;;;11.57;3.85;;;;;;;;;;10458226;28;20021;-72
2022/04/01 23:26:08;;;;;;;7.25;3.60;;;;;;;;;;10474371;28;20078;-74
2022/04/01 23:31:09;;;;;;;6.97;3.87;;;;;;;;;;10474053;28;20039;-72
2022/04/01 23:36:09;;;;;;;4.43;3.25;;;;;;;;;;10473449;28;20016;-71
2022/04/01 23:41:09;;;;;;;10.25;4.00;;;;;;;;;;10491530;28;20027;-75
2022/04/01 23:46:10;;;;;;;9.13;2.63;;;;;;;;;;10473222;28;20044;-76
2022/04/01 23:51:10;;;;;;;4.30;1.83;;;;;;;;;;10473538;28;20069;-74
2022/04/01 23:56:10;;;;;;;3.33;1.30;;;;;;;;;;10497999;28;20848;-75
